createdAt,value
2017-09-24T00:00:23.143Z,86.50
2017-09-24T00:02:51.489Z,86.40
2017-09-24T00:05:19.826Z,86.40
2017-09-24T00:07:48.188Z,86.30
2017-09-24T00:10:16.512Z,86.30
2017-09-24T00:12:44.832Z,86.40
2017-09-24T00:15:13.172Z,86.40
2017-09-24T00:17:41.490Z,86.40
2017-09-24T00:20:09.835Z,86.30
2017-09-24T00:22:38.159Z,86.50
2017-09-24T00:25:06.511Z,86.20
2017-09-24T00:27:34.826Z,86.30
2017-09-24T00:30:03.172Z,86.40
2017-09-24T00:32:31.499Z,86.20
2017-09-24T00:34:59.824Z,86.20
2017-09-24T00:37:28.172Z,86.30
2017-09-24T00:39:56.511Z,86.30
2017-09-24T00:42:24.858Z,86.30
2017-09-24T00:44:53.191Z,86.20
2017-09-24T00:47:21.532Z,86.00
2017-09-24T00:49:49.844Z,86.00
2017-09-24T00:52:17.423Z,85.90
2017-09-24T00:54:45.750Z,85.70
2017-09-24T00:57:14.071Z,85.50
2017-09-24T00:59:42.429Z,85.20
2017-09-24T01:02:09.992Z,85.20
2017-09-24T01:04:38.341Z,85.30
2017-09-24T01:07:06.656Z,85.60
2017-09-24T01:09:35.023Z,85.80
2017-09-24T01:12:03.343Z,86.00
2017-09-24T01:14:31.703Z,86.10
2017-09-24T01:17:00.043Z,86.00
2017-09-24T01:19:28.357Z,86.10
2017-09-24T01:21:56.692Z,86.30
2017-09-24T01:24:25.011Z,86.30
2017-09-24T01:26:53.357Z,86.30
2017-09-24T01:29:21.678Z,86.30
2017-09-24T01:31:50.015Z,86.50
2017-09-24T01:34:18.331Z,86.70
2017-09-24T01:36:46.688Z,86.80
2017-09-24T01:39:14.999Z,86.90
2017-09-24T01:41:43.325Z,87.00
2017-09-24T01:44:11.672Z,87.20
2017-09-24T01:46:39.983Z,87.20
2017-09-24T01:49:08.323Z,87.30
2017-09-24T01:51:36.635Z,87.50
2017-09-24T01:54:04.980Z,87.50
2017-09-24T01:56:33.295Z,87.50
2017-09-24T01:59:01.649Z,87.50
2017-09-24T02:01:29.960Z,87.60
2017-09-24T02:03:58.275Z,87.60
2017-09-24T02:06:26.619Z,88.40
2017-09-24T02:08:54.934Z,87.50
2017-09-24T02:11:23.268Z,87.60
2017-09-24T02:13:51.583Z,87.60
2017-09-24T02:16:19.932Z,87.60
2017-09-24T02:18:48.247Z,87.60
2017-09-24T02:21:16.657Z,87.70
2017-09-24T02:23:44.979Z,87.80
2017-09-24T02:26:13.332Z,87.80
2017-09-24T02:28:41.653Z,87.90
2017-09-24T02:31:09.978Z,87.80
2017-09-24T02:33:38.329Z,87.80
2017-09-24T02:36:06.648Z,87.80
2017-09-24T02:38:34.984Z,87.80
2017-09-24T02:41:03.297Z,87.70
2017-09-24T02:43:31.634Z,87.80
2017-09-24T02:45:59.198Z,87.80
2017-09-24T02:48:27.552Z,87.80
2017-09-24T02:50:55.868Z,87.70
2017-09-24T02:53:24.179Z,87.80
2017-09-24T02:55:52.528Z,87.90
2017-09-24T02:58:20.846Z,88.00
2017-09-24T03:00:49.184Z,87.60
2017-09-24T03:03:17.496Z,88.00
2017-09-24T03:05:45.835Z,88.90
2017-09-24T03:08:14.156Z,87.90
2017-09-24T03:10:42.492Z,87.90
2017-09-24T03:13:10.812Z,88.00
2017-09-24T03:15:39.167Z,89.00
2017-09-24T03:18:07.482Z,88.20
2017-09-24T03:20:35.806Z,88.30
2017-09-24T03:23:04.140Z,88.40
2017-09-24T03:25:32.452Z,88.60
2017-09-24T03:28:00.799Z,88.60
2017-09-24T03:30:29.107Z,88.50
2017-09-24T03:32:57.451Z,88.50
2017-09-24T03:35:25.775Z,88.60
2017-09-24T03:37:54.123Z,88.60
2017-09-24T03:40:22.450Z,88.50
2017-09-24T03:42:50.768Z,88.40
2017-09-24T03:45:19.119Z,88.30
2017-09-24T03:47:47.439Z,88.20
2017-09-24T03:50:15.781Z,88.30
2017-09-24T03:52:44.108Z,88.30
2017-09-24T03:55:12.449Z,88.30
2017-09-24T03:57:40.788Z,88.20
2017-09-24T04:00:09.131Z,88.20
2017-09-24T04:02:37.455Z,88.10
2017-09-24T04:05:05.775Z,87.90
2017-09-24T04:07:34.111Z,87.80
2017-09-24T04:10:02.427Z,88.00
2017-09-24T04:12:30.769Z,87.90
2017-09-24T04:14:59.087Z,87.90
2017-09-24T04:17:27.445Z,87.90
2017-09-24T04:19:55.773Z,87.90
2017-09-24T04:22:24.095Z,88.00
2017-09-24T04:24:52.440Z,88.00
2017-09-24T04:27:20.791Z,87.80
2017-09-24T04:29:48.363Z,87.80
2017-09-24T04:32:16.676Z,87.70
2017-09-24T04:34:45.020Z,87.70
2017-09-24T04:37:14.005Z,87.70
2017-09-24T04:39:42.351Z,87.70
2017-09-24T04:42:10.658Z,87.70
2017-09-24T04:44:39.021Z,87.70
2017-09-24T04:47:07.336Z,87.70
2017-09-24T04:49:35.668Z,87.80
2017-09-24T04:52:03.999Z,87.70
2017-09-24T04:54:32.306Z,87.60
2017-09-24T04:57:00.644Z,87.60
2017-09-24T04:59:28.947Z,87.40
2017-09-24T05:01:56.513Z,87.40
2017-09-24T05:04:24.859Z,87.40
2017-09-24T05:06:52.548Z,87.70
2017-09-24T05:09:20.877Z,87.80
2017-09-24T05:11:49.204Z,87.90
2017-09-24T05:14:18.908Z,87.90
2017-09-24T05:16:47.228Z,87.90
2017-09-24T05:19:15.561Z,87.80
2017-09-24T05:21:44.856Z,87.80
2017-09-24T05:24:13.301Z,87.60
2017-09-24T05:26:41.613Z,87.70
2017-09-24T05:29:09.972Z,87.70
2017-09-24T05:31:38.287Z,87.60
2017-09-24T05:34:07.498Z,87.60
2017-09-24T05:36:35.813Z,87.60
2017-09-24T05:39:04.166Z,87.80
2017-09-24T05:41:32.480Z,87.70
2017-09-24T05:44:01.071Z,87.70
2017-09-24T05:46:28.656Z,87.70
2017-09-24T05:48:56.996Z,88.20
2017-09-24T05:51:25.335Z,88.20
2017-09-24T05:53:53.656Z,88.10
2017-09-24T05:56:21.227Z,88.00
2017-09-24T05:58:49.602Z,88.10
2017-09-24T06:01:17.935Z,87.90
2017-09-24T06:03:46.314Z,87.80
2017-09-24T06:06:14.663Z,87.50
2017-09-24T06:08:42.981Z,87.50
2017-09-24T06:11:11.327Z,87.30
2017-09-24T06:13:39.672Z,87.10
2017-09-24T06:16:08.009Z,87.10
2017-09-24T06:18:36.347Z,87.00
2017-09-24T06:21:03.903Z,87.00
2017-09-24T06:23:32.241Z,87.00
2017-09-24T06:26:00.554Z,87.20
2017-09-24T06:28:28.888Z,88.10
2017-09-24T06:30:57.209Z,87.10
2017-09-24T06:33:25.553Z,87.20
2017-09-24T06:35:53.875Z,87.10
2017-09-24T06:38:22.186Z,86.70
2017-09-24T06:40:50.536Z,86.70
2017-09-24T06:43:18.846Z,86.60
2017-09-24T06:45:47.189Z,86.50
2017-09-24T06:48:15.507Z,86.30
2017-09-24T06:50:43.839Z,86.30
2017-09-24T06:53:12.152Z,86.00
2017-09-24T06:55:40.496Z,85.90
2017-09-24T06:58:08.812Z,85.70
2017-09-24T07:00:37.172Z,85.70
2017-09-24T07:03:05.493Z,85.70
2017-09-24T07:05:33.811Z,85.50
2017-09-24T07:08:02.148Z,83.90
2017-09-24T07:10:30.463Z,83.80
2017-09-24T07:12:58.807Z,83.50
2017-09-24T07:15:27.127Z,83.00
2017-09-24T07:17:55.459Z,82.50
2017-09-24T07:20:23.775Z,82.20
2017-09-24T07:22:52.111Z,82.20
2017-09-24T07:25:20.427Z,81.80
2017-09-24T07:27:48.788Z,81.50
2017-09-24T07:30:17.102Z,81.40
2017-09-24T07:32:45.418Z,81.10
2017-09-24T07:35:13.756Z,81.20
2017-09-24T07:37:42.081Z,80.90
2017-09-24T07:40:10.422Z,80.70
2017-09-24T07:42:38.783Z,80.70
2017-09-24T07:45:07.119Z,80.30
2017-09-24T07:47:35.440Z,79.60
2017-09-24T07:50:03.780Z,79.20
2017-09-24T07:52:32.100Z,79.60
2017-09-24T07:55:00.445Z,78.90
2017-09-24T07:57:28.775Z,79.00
2017-09-24T07:59:57.111Z,79.20
2017-09-24T08:02:25.507Z,79.10
2017-09-24T08:04:53.831Z,78.80
2017-09-24T08:07:22.189Z,78.60
2017-09-24T08:09:50.505Z,78.30
2017-09-24T08:12:18.844Z,77.90
2017-09-24T08:14:47.169Z,77.30
2017-09-24T08:17:15.512Z,76.80
2017-09-24T08:19:43.851Z,76.40
2017-09-24T08:22:12.201Z,76.10
2017-09-24T08:24:40.519Z,76.30
2017-09-24T08:27:08.863Z,76.30
2017-09-24T08:29:37.187Z,76.10
2017-09-24T08:32:05.504Z,76.10
2017-09-24T08:34:33.869Z,75.90
2017-09-24T08:37:02.220Z,75.60
2017-09-24T08:39:30.564Z,75.40
2017-09-24T08:41:58.889Z,75.60
2017-09-24T08:44:27.247Z,75.60
2017-09-24T08:46:55.559Z,74.90
2017-09-24T08:49:23.912Z,74.60
2017-09-24T08:51:52.251Z,74.20
2017-09-24T08:54:20.596Z,74.20
2017-09-24T08:56:49.019Z,74.00
2017-09-24T08:59:17.338Z,73.20
2017-09-24T09:01:45.687Z,72.60
2017-09-24T09:04:14.012Z,72.00
2017-09-24T09:06:42.353Z,72.10
2017-09-24T09:09:10.676Z,71.20
2017-09-24T09:11:39.021Z,70.20
2017-09-24T09:14:07.358Z,70.70
2017-09-24T09:16:35.704Z,69.80
2017-09-24T09:19:04.024Z,69.70
2017-09-24T09:21:45.376Z,69.70
2017-09-24T09:24:13.696Z,69.30
2017-09-24T09:26:42.060Z,69.00
2017-09-24T09:29:10.409Z,68.10
2017-09-24T09:31:38.805Z,67.50
2017-09-24T09:34:19.011Z,66.90
2017-09-24T09:36:47.339Z,66.10
2017-09-24T09:39:15.672Z,65.50
2017-09-24T09:41:43.988Z,65.60
2017-09-24T09:44:24.313Z,65.00
2017-09-24T09:47:14.366Z,64.10
2017-09-24T09:49:42.705Z,63.40
2017-09-24T09:52:11.026Z,62.80
2017-09-24T09:54:39.384Z,61.90
2017-09-24T09:57:07.699Z,61.90
2017-09-24T09:59:35.350Z,61.90
2017-09-24T10:02:03.802Z,62.00
2017-09-24T10:04:32.121Z,61.20
2017-09-24T10:07:12.367Z,60.60
2017-09-24T10:10:03.398Z,61.10
2017-09-24T10:12:31.752Z,59.40
2017-09-24T10:15:00.068Z,59.40
2017-09-24T10:17:28.403Z,59.30
2017-09-24T10:19:56.719Z,59.30
2017-09-24T10:22:25.057Z,58.90
2017-09-24T10:24:53.375Z,58.00
2017-09-24T10:27:21.743Z,57.50
2017-09-24T10:30:10.864Z,55.60
2017-09-24T10:32:39.198Z,55.50
2017-09-24T10:35:07.516Z,55.50
2017-09-24T10:37:35.833Z,55.80
2017-09-24T10:40:04.173Z,56.20
2017-09-24T10:42:32.492Z,56.30
2017-09-24T10:45:00.831Z,55.90
2017-09-24T10:47:29.147Z,55.00
2017-09-24T10:49:57.501Z,55.10
2017-09-24T10:52:25.814Z,56.30
2017-09-24T10:54:54.137Z,56.60
2017-09-24T10:57:22.478Z,56.50
2017-09-24T10:59:50.831Z,55.90
2017-09-24T11:02:19.167Z,54.90
2017-09-24T11:04:47.482Z,53.40
2017-09-24T11:07:15.817Z,52.00
2017-09-24T11:09:43.370Z,52.00
2017-09-24T11:12:11.723Z,50.30
2017-09-24T11:14:40.039Z,50.30
2017-09-24T11:17:08.357Z,49.30
2017-09-24T11:19:36.699Z,48.90
2017-09-24T11:22:05.039Z,48.40
2017-09-24T11:24:33.385Z,48.60
2017-09-24T11:27:01.701Z,48.10
2017-09-24T11:29:30.092Z,48.00
2017-09-24T11:31:57.699Z,48.00
2017-09-24T11:34:26.056Z,48.20
2017-09-24T11:36:54.373Z,48.10
2017-09-24T11:39:22.693Z,49.60
2017-09-24T11:41:51.033Z,49.90
2017-09-24T11:44:19.348Z,51.40
2017-09-24T11:46:47.693Z,52.50
2017-09-24T11:49:16.011Z,53.30
2017-09-24T11:51:44.391Z,54.00
2017-09-24T11:54:12.711Z,53.50
2017-09-24T11:56:41.033Z,52.50
2017-09-24T11:59:09.385Z,51.00
2017-09-24T12:01:36.943Z,51.00
2017-09-24T12:04:05.279Z,50.30
2017-09-24T12:06:33.595Z,51.50
2017-09-24T12:09:01.953Z,52.00
2017-09-24T12:11:30.276Z,52.60
2017-09-24T12:13:58.622Z,53.40
2017-09-24T12:16:26.945Z,53.20
2017-09-24T12:18:55.291Z,52.90
2017-09-24T12:21:23.630Z,53.30
2017-09-24T12:23:51.952Z,54.20
2017-09-24T12:26:20.290Z,54.10
2017-09-24T12:28:48.615Z,55.00
2017-09-24T12:31:16.972Z,54.80
2017-09-24T12:33:45.288Z,54.70
2017-09-24T12:36:13.616Z,54.20
2017-09-24T12:38:41.954Z,53.80
2017-09-24T12:41:10.273Z,53.20
2017-09-24T12:43:38.615Z,52.50
2017-09-24T12:46:06.161Z,52.50
2017-09-24T12:48:34.475Z,52.40
2017-09-24T12:51:02.810Z,53.30
2017-09-24T12:53:31.135Z,53.60
2017-09-24T12:55:59.479Z,54.60
2017-09-24T12:58:27.800Z,55.30
2017-09-24T13:00:56.156Z,55.70
2017-09-24T13:03:24.476Z,55.90
2017-09-24T13:05:52.788Z,54.90
2017-09-24T13:11:24.903Z,53.20
2017-09-24T13:13:52.489Z,53.40
2017-09-24T13:16:20.815Z,53.10
2017-09-24T13:18:49.159Z,53.20
2017-09-24T13:21:17.480Z,52.50
2017-09-24T13:23:45.827Z,52.60
2017-09-24T13:26:14.141Z,52.70
2017-09-24T13:28:42.461Z,51.60
2017-09-24T13:31:10.807Z,50.50
2017-09-24T13:33:39.121Z,50.70
2017-09-24T13:36:06.699Z,50.70
2017-09-24T13:38:35.036Z,50.30
2017-09-24T13:41:03.383Z,50.10
2017-09-24T13:43:31.702Z,50.00
2017-09-24T13:46:00.063Z,49.70
2017-09-24T13:48:28.405Z,49.80
2017-09-24T13:50:56.724Z,50.00
2017-09-24T13:53:25.076Z,50.00
2017-09-24T13:55:53.396Z,49.60
2017-09-24T13:58:21.735Z,49.70
2017-09-24T14:00:50.070Z,49.70
2017-09-24T14:03:18.414Z,50.00
2017-09-24T14:05:46.731Z,49.70
2017-09-24T14:08:15.092Z,49.30
2017-09-24T14:10:43.408Z,49.40
2017-09-24T14:13:11.725Z,49.60
2017-09-24T14:15:40.072Z,49.80
2017-09-24T14:18:08.394Z,50.20
2017-09-24T14:20:36.769Z,48.60
2017-09-24T14:23:05.088Z,49.90
2017-09-24T14:25:33.438Z,49.90
2017-09-24T14:28:01.760Z,50.40
2017-09-24T14:30:30.100Z,51.60
2017-09-24T14:32:58.419Z,52.00
2017-09-24T14:35:26.775Z,51.70
2017-09-24T14:37:55.148Z,51.90
2017-09-24T14:40:23.471Z,51.70
2017-09-24T14:42:51.816Z,51.60
2017-09-24T14:45:20.133Z,51.20
2017-09-24T14:47:48.484Z,51.40
2017-09-24T14:50:16.803Z,51.30
2017-09-24T14:52:45.141Z,50.60
2017-09-24T14:55:13.460Z,50.50
2017-09-24T14:57:41.808Z,50.40
2017-09-24T15:00:10.156Z,50.50
2017-09-24T15:02:38.517Z,51.20
2017-09-24T15:05:06.080Z,51.20
2017-09-24T15:07:34.475Z,51.10
2017-09-24T15:10:02.821Z,50.70
2017-09-24T15:12:31.165Z,51.00
2017-09-24T15:14:59.501Z,51.80
2017-09-24T15:17:27.823Z,52.00
2017-09-24T15:19:56.462Z,51.80
2017-09-24T15:22:24.790Z,51.70
2017-09-24T15:24:53.343Z,52.20
2017-09-24T15:27:21.663Z,52.30
2017-09-24T15:29:49.304Z,52.30
2017-09-24T15:32:16.908Z,52.70
2017-09-24T15:34:45.220Z,53.00
2017-09-24T15:37:13.648Z,53.10
2017-09-24T15:39:41.205Z,53.00
2017-09-24T15:42:09.544Z,52.90
2017-09-24T15:44:37.859Z,53.30
2017-09-24T15:47:06.204Z,53.80
2017-09-24T15:49:34.523Z,53.20
2017-09-24T15:52:02.881Z,53.50
2017-09-24T15:54:31.206Z,53.50
2017-09-24T15:56:59.524Z,53.40
2017-09-24T15:59:27.863Z,53.40
2017-09-24T16:01:56.180Z,53.80
2017-09-24T16:04:23.760Z,53.80
2017-09-24T16:06:52.083Z,54.30
2017-09-24T16:09:20.447Z,54.30
2017-09-24T16:11:48.764Z,54.30
2017-09-24T16:14:17.097Z,54.50
2017-09-24T16:16:45.435Z,54.70
2017-09-24T16:19:13.756Z,54.50
2017-09-24T16:21:42.100Z,54.40
2017-09-24T16:24:10.420Z,54.50
2017-09-24T16:26:39.764Z,54.80
2017-09-24T16:29:08.088Z,55.10
2017-09-24T16:31:36.447Z,55.50
2017-09-24T16:34:03.996Z,55.50
2017-09-24T16:36:32.318Z,56.20
2017-09-24T16:39:00.660Z,56.60
2017-09-24T16:41:28.995Z,57.30
2017-09-24T16:43:57.354Z,58.00
2017-09-24T16:46:25.671Z,59.00
2017-09-24T16:48:54.032Z,60.00
2017-09-24T16:51:22.343Z,61.10
2017-09-24T16:53:50.663Z,62.30
2017-09-24T16:56:19.008Z,63.60
2017-09-24T16:58:47.325Z,64.60
2017-09-24T17:01:15.663Z,65.30
2017-09-24T17:03:43.994Z,66.30
2017-09-24T17:06:12.337Z,67.00
2017-09-24T17:08:40.683Z,67.50
2017-09-24T17:11:09.020Z,68.10
2017-09-24T17:13:37.354Z,68.80
2017-09-24T17:16:04.956Z,68.80
2017-09-24T17:18:33.279Z,70.30
2017-09-24T17:21:01.625Z,70.90
2017-09-24T17:23:29.972Z,71.70
2017-09-24T17:25:58.294Z,72.30
2017-09-24T17:28:26.660Z,72.60
2017-09-24T17:30:54.224Z,72.60
2017-09-24T17:33:22.564Z,73.40
2017-09-24T17:35:50.882Z,73.80
2017-09-24T17:38:19.252Z,74.30
2017-09-24T17:40:47.569Z,74.80
2017-09-24T17:43:15.920Z,75.30
2017-09-24T17:45:44.249Z,75.60
2017-09-24T17:48:12.611Z,76.00
2017-09-24T17:50:40.931Z,76.40
2017-09-24T17:53:09.256Z,76.70
2017-09-24T17:55:36.839Z,76.80
2017-09-24T17:58:05.166Z,77.50
2017-09-24T18:00:33.511Z,78.60
2017-09-24T18:03:01.827Z,78.00
2017-09-24T18:05:30.168Z,78.30
2017-09-24T18:07:58.489Z,78.70
2017-09-24T18:10:26.835Z,78.70
2017-09-24T18:12:55.156Z,78.80
2017-09-24T18:15:22.764Z,78.80
2017-09-24T18:17:51.083Z,79.40
2017-09-24T18:20:19.411Z,79.50
2017-09-24T18:22:47.747Z,79.70
2017-09-24T18:25:16.068Z,80.00
2017-09-24T18:27:44.411Z,80.30
2017-09-24T18:30:12.737Z,80.50
2017-09-24T18:32:41.084Z,81.10
2017-09-24T18:35:09.408Z,81.30
2017-09-24T18:37:37.808Z,81.60
2017-09-24T18:40:05.373Z,81.40
2017-09-24T18:42:33.747Z,81.80
2017-09-24T18:45:02.085Z,81.80
2017-09-24T18:47:30.449Z,82.00
2017-09-24T18:49:58.803Z,82.00
2017-09-24T18:52:27.140Z,82.20
2017-09-24T18:54:55.516Z,82.20
2017-09-24T18:57:23.840Z,82.40
2017-09-24T18:59:52.416Z,82.70
2017-09-24T19:02:20.784Z,82.80
2017-09-24T19:04:49.135Z,83.90
2017-09-24T19:07:17.463Z,82.90
2017-09-24T19:09:45.829Z,83.00
2017-09-24T19:12:14.149Z,83.10
2017-09-24T19:14:42.467Z,83.10
2017-09-24T19:17:10.815Z,83.30
2017-09-24T19:19:39.248Z,83.40
2017-09-24T19:22:07.637Z,83.80
2017-09-24T19:24:35.991Z,83.80
2017-09-24T19:27:04.356Z,84.00
2017-09-24T19:29:32.679Z,84.00
2017-09-24T19:32:01.052Z,84.10
2017-09-24T19:34:29.391Z,84.90
2017-09-24T19:36:57.824Z,84.10
2017-09-24T19:39:26.186Z,84.20
2017-09-24T19:41:54.506Z,84.10
2017-09-24T19:44:22.167Z,84.10
2017-09-24T19:46:50.535Z,84.40
2017-09-24T19:49:18.880Z,84.20
2017-09-24T19:51:47.205Z,84.20
2017-09-24T19:54:15.631Z,84.40
2017-09-24T19:56:44.044Z,84.50
2017-09-24T19:59:12.384Z,84.60
2017-09-24T20:01:40.729Z,84.70
2017-09-24T20:04:09.092Z,84.80
2017-09-24T20:06:37.415Z,84.70
2017-09-24T20:09:05.732Z,84.80
2017-09-24T20:11:34.069Z,84.90
2017-09-24T20:14:02.396Z,84.90
2017-09-24T20:16:30.736Z,85.00
2017-09-24T20:18:59.063Z,85.20
2017-09-24T20:21:27.402Z,85.30
2017-09-24T20:23:55.719Z,85.50
2017-09-24T20:26:24.090Z,85.80
2017-09-24T20:28:52.419Z,86.10
2017-09-24T20:31:20.789Z,86.10
2017-09-24T20:33:49.111Z,86.10
2017-09-24T20:36:17.440Z,86.00
2017-09-24T20:38:45.811Z,86.10
2017-09-24T20:41:14.140Z,86.00
2017-09-24T20:43:42.488Z,85.90
2017-09-24T20:46:10.813Z,85.90
2017-09-24T20:48:39.150Z,86.00
2017-09-24T20:51:07.462Z,86.00
2017-09-24T20:53:35.811Z,86.00
2017-09-24T20:56:04.136Z,86.00
2017-09-24T20:58:32.521Z,86.00
2017-09-24T21:01:00.852Z,85.90
2017-09-24T21:03:29.183Z,85.70
2017-09-24T21:05:57.532Z,85.70
2017-09-24T21:08:25.855Z,85.70
2017-09-24T21:10:54.196Z,85.70
2017-09-24T21:13:22.515Z,85.60
2017-09-24T21:15:50.094Z,85.60
2017-09-24T21:18:18.421Z,85.50
2017-09-24T21:20:46.827Z,85.70
2017-09-24T21:23:15.148Z,85.80
2017-09-24T21:25:43.467Z,85.90
2017-09-24T21:28:11.807Z,86.00
2017-09-24T21:30:40.132Z,85.90
2017-09-24T21:33:08.476Z,86.00
2017-09-24T21:35:36.811Z,86.10
2017-09-24T21:38:05.152Z,86.00
2017-09-24T21:40:33.475Z,85.90
2017-09-24T21:43:01.818Z,86.00
2017-09-24T21:45:30.142Z,85.90
2017-09-24T21:47:58.483Z,85.60
2017-09-24T21:50:26.804Z,85.70
2017-09-24T21:52:55.161Z,85.80
2017-09-24T21:55:23.480Z,87.10
2017-09-24T21:57:51.791Z,87.10
2017-09-24T22:00:20.123Z,87.20
2017-09-24T22:02:48.431Z,87.20
2017-09-24T22:05:16.763Z,88.00
2017-09-24T22:07:45.084Z,87.10
2017-09-24T22:10:13.419Z,87.00
2017-09-24T22:12:41.732Z,87.10
2017-09-24T22:15:10.064Z,87.10
2017-09-24T22:17:38.378Z,87.10
2017-09-24T22:20:06.717Z,87.00
2017-09-24T22:22:35.032Z,87.10
2017-09-24T22:25:03.362Z,87.20
2017-09-24T22:27:31.704Z,87.20
2017-09-24T22:30:00.024Z,88.00
2017-09-24T22:32:28.364Z,87.10
2017-09-24T22:34:56.680Z,87.10
2017-09-24T22:37:25.016Z,87.00
2017-09-24T22:39:53.331Z,86.90
2017-09-24T22:42:21.667Z,86.80
2017-09-24T22:44:49.984Z,86.60
2017-09-24T22:47:18.323Z,86.70
2017-09-24T22:49:46.641Z,87.00
2017-09-24T22:52:14.990Z,87.10
2017-09-24T22:54:43.304Z,87.10
2017-09-24T22:57:11.624Z,87.00
2017-09-24T22:59:39.964Z,87.00
2017-09-24T23:02:08.287Z,86.80
2017-09-24T23:04:36.620Z,87.00
2017-09-24T23:07:04.963Z,87.20
2017-09-24T23:09:33.299Z,87.20
2017-09-24T23:12:01.612Z,87.10
2017-09-24T23:14:29.939Z,86.90
2017-09-24T23:16:58.257Z,86.90
2017-09-24T23:19:26.599Z,87.00
2017-09-24T23:21:54.910Z,87.10
2017-09-24T23:24:23.256Z,87.10
2017-09-24T23:26:51.571Z,87.10
2017-09-24T23:29:19.887Z,87.10
2017-09-24T23:31:48.218Z,86.90
2017-09-24T23:34:16.532Z,86.90
2017-09-24T23:36:44.875Z,86.90
2017-09-24T23:39:13.187Z,87.00
2017-09-24T23:41:41.519Z,86.90
2017-09-24T23:44:09.835Z,87.00
2017-09-24T23:46:38.175Z,87.00
2017-09-24T23:49:06.498Z,87.10
2017-09-24T23:51:34.836Z,87.10
2017-09-24T23:54:03.148Z,87.00
2017-09-24T23:56:31.468Z,86.90
2017-09-24T23:58:59.807Z,87.10
